Time;durP1;ratioP1;P1;durP2;ratioP2;P2;SDS_P1;SDS_P2;PMS_P1;PMS_P2;Temp;Humidity;BMP_temperature;BMP_pressure;BME280_temperature;BME280_humidity;BME280_pressure;Samples;Min_cycle;Max_cycle;Signal;HPM_P1;HPM_P2
2023/03/21 00:00:25;;;;;;;4.70;4.30;;;10.60;99.90;;;;;;5005649;28;20478;-68
2023/03/21 00:02:51;;;;;;;5.50;5.00;;;10.60;99.90;;;;;;5014952;28;20179;-67
2023/03/21 00:05:16;;;;;;;7.47;4.60;;;10.60;99.90;;;;;;5008964;28;20194;-68
2023/03/21 00:07:42;;;;;;;6.30;5.70;;;10.60;99.90;;;;;;5014281;28;20191;-68
2023/03/21 00:10:08;;;;;;;6.57;5.67;;;10.60;99.90;;;;;;5013096;28;20565;-68
2023/03/21 00:12:36;;;;;;;5.60;4.30;;;10.60;99.90;;;;;;5015177;28;20190;-68
2023/03/21 00:15:04;;;;;;;5.40;4.90;;;10.60;99.90;;;;;;5012218;28;20433;-68
2023/03/21 00:17:31;;;;;;;5.53;5.03;;;10.50;99.90;;;;;;5007965;28;20514;-68
2023/03/21 00:20:01;;;;;;;5.77;4.63;;;10.50;99.90;;;;;;5011111;28;20819;-68
2023/03/21 00:22:27;;;;;;;5.60;5.10;;;10.40;99.90;;;;;;5013283;28;20429;-69
2023/03/21 00:24:54;;;;;;;5.30;4.80;;;10.40;99.90;;;;;;5012943;28;20426;-68
2023/03/21 00:27:19;;;;;;;5.80;5.20;;;10.40;99.90;;;;;;5011004;28;20187;-68
2023/03/21 00:29:47;;;;;;;5.33;4.77;;;10.40;99.90;;;;;;5013015;28;20487;-68
2023/03/21 00:32:13;;;;;;;5.70;5.23;;;10.40;99.90;;;;;;5006718;28;20186;-68
2023/03/21 00:34:38;;;;;;;5.67;4.97;;;10.50;99.90;;;;;;5011048;28;20803;-68
2023/03/21 00:37:06;;;;;;;5.43;4.93;;;10.50;99.90;;;;;;5012882;28;20195;-68
2023/03/21 00:39:31;;;;;;;6.00;4.67;;;10.50;99.90;;;;;;5011972;28;20183;-67
2023/03/21 00:41:57;;;;;;;4.83;4.00;;;10.50;99.90;;;;;;5013705;28;20801;-68
2023/03/21 00:44:24;;;;;;;5.67;4.67;;;10.50;99.90;;;;;;5012729;28;20233;-67
2023/03/21 00:46:50;;;;;;;9.00;3.50;;;10.50;99.90;;;;;;5012608;28;20566;-67
2023/03/21 00:49:15;;;;;;;4.60;4.13;;;10.60;99.90;;;;;;5012861;28;20442;-68
2023/03/21 00:51:42;;;;;;;3.70;3.20;;;10.60;99.90;;;;;;5013057;28;20222;-68
2023/03/21 00:54:11;;;;;;;3.70;3.00;;;10.50;99.90;;;;;;5012386;28;20189;-68
2023/03/21 00:56:36;;;;;;;4.37;3.97;;;10.60;99.90;;;;;;5007911;28;20603;-68
2023/03/21 00:59:02;;;;;;;4.90;3.47;;;10.60;99.90;;;;;;5010266;28;20437;-67
2023/03/21 01:01:30;;;;;;;8.40;4.57;;;10.60;99.90;;;;;;5013101;28;20198;-67
2023/03/21 01:04:01;;;;;;;4.33;3.90;;;10.60;99.90;;;;;;5013003;28;20470;-68
2023/03/21 01:06:27;;;;;;;4.87;3.50;;;10.60;99.90;;;;;;5012191;28;20450;-68
2023/03/21 01:08:53;;;;;;;3.80;3.43;;;10.50;99.90;;;;;;5012438;28;20507;-68
2023/03/21 01:11:23;;;;;;;4.10;3.70;;;10.60;99.90;;;;;;5011104;28;20211;-68
2023/03/21 01:13:49;;;;;;;3.97;3.67;;;10.60;99.90;;;;;;5012272;28;20858;-69
2023/03/21 01:16:17;;;;;;;3.97;3.67;;;10.60;99.90;;;;;;5012047;28;20564;-68
2023/03/21 01:18:42;;;;;;;9.07;4.10;;;10.60;99.90;;;;;;5011972;28;20438;-68
2023/03/21 01:21:10;;;;;;;4.07;3.77;;;10.50;99.90;;;;;;5012660;28;20511;-68
2023/03/21 01:23:36;;;;;;;3.83;3.40;;;10.50;99.90;;;;;;5011533;28;20182;-68
2023/03/21 01:26:03;;;;;;;4.00;3.47;;;10.50;99.90;;;;;;5010340;28;20429;-67
2023/03/21 01:28:29;;;;;;;3.93;3.63;;;10.40;99.90;;;;;;5009062;28;20445;-67
2023/03/21 01:30:55;;;;;;;4.70;3.70;;;10.30;99.90;;;;;;5012818;28;21025;-68
2023/03/21 01:33:22;;;;;;;4.53;4.13;;;10.40;99.90;;;;;;5012284;28;20471;-68
2023/03/21 01:35:48;;;;;;;3.63;3.33;;;10.40;99.90;;;;;;5011533;28;20476;-68
2023/03/21 01:38:14;;;;;;;4.33;3.90;;;10.50;99.90;;;;;;5010965;28;20445;-67
2023/03/21 01:40:40;;;;;;;4.20;3.90;;;10.50;99.90;;;;;;5011765;28;20953;-68
2023/03/21 01:43:21;;;;;;;4.50;4.10;;;10.50;99.90;;;;;;5012324;28;20442;-69
2023/03/21 01:46:05;;;;;;;3.50;3.20;;;10.50;99.90;;;;;;5011417;28;20942;-68
2023/03/21 01:48:31;;;;;;;4.07;3.57;;;10.50;99.90;;;;;;5010739;28;21048;-68
2023/03/21 01:50:58;;;;;;;4.43;3.70;;;10.40;99.90;;;;;;5011978;28;20477;-68
2023/03/21 01:53:28;;;;;;;4.23;3.83;;;10.40;99.90;;;;;;5011856;28;20441;-68
2023/03/21 01:55:56;;;;;;;5.10;3.67;;;10.40;99.90;;;;;;5010679;28;20473;-68
2023/03/21 01:58:23;;;;;;;4.50;4.00;;;10.40;99.90;;;;;;5011611;28;20438;-67
2023/03/21 02:00:50;;;;;;;4.30;3.90;;;10.40;99.90;;;;;;5011888;28;20963;-68
2023/03/21 02:03:16;;;;;;;3.87;3.57;;;10.30;99.90;;;;;;5008323;28;20934;-68
2023/03/21 02:05:44;;;;;;;4.97;3.67;;;10.30;99.90;;;;;;5006178;28;20474;-67
2023/03/21 02:08:12;;;;;;;4.27;3.60;;;10.40;99.90;;;;;;5010617;28;20692;-68
2023/03/21 02:10:38;;;;;;;5.20;4.70;;;10.40;99.90;;;;;;5008770;28;20457;-68
2023/03/21 02:13:09;;;;;;;4.50;4.10;;;10.40;99.90;;;;;;5011738;28;20469;-68
2023/03/21 02:15:41;;;;;;;5.40;4.90;;;10.50;99.90;;;;;;5011666;28;20466;-68
2023/03/21 02:18:25;;;;;;;5.33;3.37;;;10.40;99.90;;;;;;5011469;28;20429;-68
2023/03/21 02:21:17;;;;;;;5.53;4.50;;;10.30;99.90;;;;;;5008108;28;20528;-68
2023/03/21 02:24:10;;;;;;;6.73;5.37;;;10.20;99.90;;;;;;5010007;28;20441;-68
2023/03/21 02:26:55;;;;;;;5.47;4.97;;;10.20;99.90;;;;;;5007671;28;20466;-68
2023/03/21 02:29:58;;;;;;;5.60;5.00;;;10.20;99.90;;;;;;5009716;28;20443;-68
2023/03/21 02:32:29;;;;;;;5.97;5.00;;;10.20;99.90;;;;;;5011539;28;20434;-68
2023/03/21 02:35:12;;;;;;;5.07;4.57;;;10.20;99.90;;;;;;5014016;28;20508;-68
2023/03/21 02:37:45;;;;;;;6.43;5.50;;;10.30;99.90;;;;;;5010400;28;20429;-68
2023/03/21 02:40:22;;;;;;;6.30;4.97;;;10.20;99.90;;;;;;5009391;28;20489;-68
2023/03/21 02:43:00;;;;;;;4.57;4.20;;;10.20;99.90;;;;;;5010963;28;20794;-69
2023/03/21 02:46:13;;;;;;;4.20;3.57;;;10.20;99.90;;;;;;5010323;28;20954;-68
2023/03/21 02:48:46;;;;;;;6.23;4.00;;;10.20;99.90;;;;;;4967979;28;20436;-68
2023/03/21 02:51:15;;;;;;;6.70;6.00;;;10.20;99.90;;;;;;4998880;28;20477;-69
2023/03/21 02:53:46;;;;;;;4.70;4.20;;;10.10;99.90;;;;;;5007118;28;20439;-68
2023/03/21 02:56:12;;;;;;;4.73;4.17;;;10.10;99.90;;;;;;5004102;28;20465;-68
2023/03/21 02:58:39;;;;;;;4.07;3.73;;;10.10;99.90;;;;;;5009537;28;20440;-68
2023/03/21 03:01:07;;;;;;;4.20;3.80;;;10.20;99.90;;;;;;5010294;28;20469;-68
2023/03/21 03:03:34;;;;;;;7.23;4.33;;;10.20;99.90;;;;;;5010964;28;20496;-68
2023/03/21 03:06:02;;;;;;;4.13;3.73;;;10.10;99.90;;;;;;5008286;28;20495;-68
2023/03/21 03:09:14;;;;;;;4.10;3.70;;;10.20;99.90;;;;;;5009208;28;20891;-68
2023/03/21 03:11:43;;;;;;;4.10;3.80;;;10.20;99.90;;;;;;5000934;28;20469;-68
2023/03/21 03:14:28;;;;;;;4.73;3.50;;;10.20;99.90;;;;;;5005966;28;20450;-68
2023/03/21 03:17:41;;;;;;;3.77;3.47;;;10.20;99.90;;;;;;5009814;28;20493;-68
2023/03/21 03:20:24;;;;;;;3.90;3.67;;;10.20;99.90;;;;;;5006985;28;20471;-68
2023/03/21 03:23:15;;;;;;;3.57;3.27;;;10.20;99.90;;;;;;5007696;28;20433;-68
2023/03/21 03:25:54;;;;;;;4.20;3.80;;;10.10;99.90;;;;;;5004248;28;20439;-68
2023/03/21 03:28:25;;;;;;;4.23;3.70;;;10.10;99.90;;;;;;5003705;28;20438;-68
2023/03/21 03:30:53;;;;;;;4.60;3.67;;;10.10;99.90;;;;;;5011006;28;20453;-68
2023/03/21 03:33:22;;;;;;;4.50;3.93;;;10.10;99.90;;;;;;5011333;28;20441;-68
2023/03/21 03:35:49;;;;;;;3.70;3.40;;;10.10;99.90;;;;;;5009035;28;20599;-68
2023/03/21 03:38:16;;;;;;;4.83;3.70;;;10.10;99.90;;;;;;5011375;28;20502;-69
2023/03/21 03:40:49;;;;;;;5.97;3.70;;;10.10;99.90;;;;;;5010188;28;20456;-68
2023/03/21 03:43:23;;;;;;;4.73;3.73;;;10.00;99.90;;;;;;4996902;28;20437;-68
2023/03/21 03:45:55;;;;;;;9.03;4.20;;;10.00;99.90;;;;;;5008010;28;20441;-68
2023/03/21 03:48:28;;;;;;;5.93;4.13;;;9.90;99.90;;;;;;5003872;28;20731;-68
2023/03/21 03:51:06;;;;;;;4.40;4.10;;;9.90;99.90;;;;;;5032620;23;20485;-67
2023/03/21 03:53:35;;;;;;;5.77;4.70;;;9.90;99.90;;;;;;5010301;28;20437;-68
2023/03/21 03:56:03;;;;;;;4.30;3.90;;;10.00;99.90;;;;;;5010283;28;20950;-68
2023/03/21 03:58:30;;;;;;;4.17;3.77;;;9.90;99.90;;;;;;5009355;28;20449;-68
2023/03/21 04:00:55;;;;;;;7.10;4.00;;;9.90;99.90;;;;;;5009757;28;20480;-68
2023/03/21 04:03:21;;;;;;;5.40;3.93;;;9.90;99.90;;;;;;5011552;28;20421;-68
2023/03/21 04:05:47;;;;;;;3.30;3.10;;;9.90;99.90;;;;;;5013797;28;20182;-68
2023/03/21 04:08:14;;;;;;;7.77;4.37;;;9.90;99.90;;;;;;5012663;28;20189;-68
2023/03/21 04:10:40;;;;;;;4.50;4.17;;;9.90;99.90;;;;;;5013889;28;20207;-67
2023/03/21 04:13:06;;;;;;;5.27;4.87;;;9.80;99.90;;;;;;5010352;28;20600;-67
2023/03/21 04:15:32;;;;;;;6.90;4.43;;;9.80;99.90;;;;;;5014514;28;20498;-68
2023/03/21 04:17:58;;;;;;;4.20;3.80;;;9.70;99.90;;;;;;5014940;28;20418;-68
2023/03/21 04:20:23;;;;;;;4.23;3.83;;;9.80;99.90;;;;;;5012168;28;20721;-67
2023/03/21 04:22:50;;;;;;;3.67;3.00;;;9.70;99.90;;;;;;5012953;28;20171;-68
2023/03/21 04:25:16;;;;;;;6.30;4.03;;;9.70;99.90;;;;;;5006572;28;20540;-67
2023/03/21 04:27:41;;;;;;;4.03;3.73;;;9.70;99.90;;;;;;5013040;28;20429;-67
2023/03/21 04:30:11;;;;;;;5.60;3.93;;;9.60;99.90;;;;;;5011575;28;20876;-68
2023/03/21 04:32:38;;;;;;;4.13;3.77;;;9.50;99.90;;;;;;5010983;28;20171;-68
2023/03/21 04:35:08;;;;;;;3.93;3.53;;;9.40;99.90;;;;;;5013835;28;20881;-68
2023/03/21 04:37:35;;;;;;;4.20;3.90;;;9.40;99.90;;;;;;5011332;28;21004;-67
2023/03/21 04:40:05;;;;;;;5.80;4.10;;;9.40;99.90;;;;;;5013125;28;20433;-68
2023/03/21 04:42:31;;;;;;;4.20;3.80;;;9.20;99.90;;;;;;5012449;28;20537;-68
2023/03/21 04:44:57;;;;;;;5.03;4.07;;;9.10;99.90;;;;;;5013368;28;20434;-68
2023/03/21 04:47:23;;;;;;;4.57;4.13;;;9.10;99.90;;;;;;5013303;28;20943;-68
2023/03/21 04:49:48;;;;;;;5.10;4.60;;;9.00;99.90;;;;;;5012094;28;20225;-68
2023/03/21 04:52:15;;;;;;;9.90;5.00;;;8.90;99.90;;;;;;5013806;28;20203;-67
2023/03/21 04:54:41;;;;;;;3.50;3.20;;;9.00;99.90;;;;;;5013652;28;20183;-67
2023/03/21 04:57:07;;;;;;;5.60;4.37;;;9.00;99.90;;;;;;5012455;28;20484;-67
2023/03/21 04:59:33;;;;;;;3.83;3.53;;;8.90;99.90;;;;;;5012968;28;20175;-68
2023/03/21 05:01:59;;;;;;;5.40;3.50;;;8.90;99.90;;;;;;5013507;28;20487;-68
2023/03/21 05:04:26;;;;;;;4.73;3.77;;;8.80;99.90;;;;;;5013598;28;20516;-68
2023/03/21 05:06:53;;;;;;;5.30;3.73;;;8.80;99.90;;;;;;5012531;28;20517;-68
2023/03/21 05:09:19;;;;;;;4.77;3.30;;;8.70;99.90;;;;;;5009497;28;20512;-68
2023/03/21 05:11:44;;;;;;;4.43;3.17;;;8.70;99.90;;;;;;5010915;28;21042;-68
2023/03/21 05:14:14;;;;;;;4.47;3.57;;;8.60;99.90;;;;;;5012750;28;20438;-67
2023/03/21 05:16:47;;;;;;;4.60;4.20;;;8.60;99.90;;;;;;5012677;28;20671;-67
2023/03/21 05:19:13;;;;;;;4.87;4.47;;;8.70;99.90;;;;;;5008161;28;20461;-67
2023/03/21 05:21:43;;;;;;;5.10;3.80;;;8.80;99.90;;;;;;5013461;28;20446;-68
2023/03/21 05:24:18;;;;;;;6.30;4.40;;;8.70;99.90;;;;;;5012693;28;20990;-68
2023/03/21 05:26:49;;;;;;;5.43;4.90;;;8.60;99.90;;;;;;5012727;28;20437;-68
2023/03/21 05:29:16;;;;;;;5.23;4.70;;;8.60;99.90;;;;;;5009816;28;20528;-68
2023/03/21 05:31:42;;;;;;;7.70;3.90;;;8.50;99.90;;;;;;5008767;28;20450;-68
2023/03/21 05:34:08;;;;;;;5.10;3.50;;;8.50;99.90;;;;;;5011639;28;20455;-67
2023/03/21 05:36:34;;;;;;;3.70;3.40;;;8.50;99.90;;;;;;5012045;28;20936;-68
2023/03/21 05:39:00;;;;;;;7.63;3.30;;;8.40;99.90;;;;;;5012250;28;20178;-68
2023/03/21 05:41:26;;;;;;;10.07;4.83;;;8.50;99.90;;;;;;5012537;28;20812;-68
2023/03/21 05:43:51;;;;;;;6.03;5.27;;;8.40;99.90;;;;;;5010454;28;21017;-67
2023/03/21 05:46:17;;;;;;;4.67;4.27;;;8.50;99.90;;;;;;5011740;28;20182;-68
2023/03/21 05:48:43;;;;;;;4.07;3.67;;;8.50;99.90;;;;;;5011052;28;20186;-67
2023/03/21 05:51:08;;;;;;;4.50;4.10;;;8.50;99.90;;;;;;5011498;28;20238;-67
2023/03/21 05:53:34;;;;;;;6.07;4.07;;;8.60;99.90;;;;;;5010189;28;20241;-68
2023/03/21 05:55:59;;;;;;;5.10;4.47;;;8.60;99.90;;;;;;5012475;28;20218;-68
2023/03/21 05:58:25;;;;;;;9.00;6.67;;;8.60;99.90;;;;;;5010556;28;20186;-67
2023/03/21 06:00:50;;;;;;;5.33;4.43;;;8.60;99.90;;;;;;5012247;28;20191;-68
2023/03/21 06:03:16;;;;;;;6.00;3.77;;;8.70;99.90;;;;;;5007631;28;20171;-67
2023/03/21 06:05:41;;;;;;;4.17;3.80;;;8.70;99.90;;;;;;5010515;28;20195;-68
2023/03/21 06:08:07;;;;;;;6.50;5.00;;;8.70;99.90;;;;;;5009953;28;20183;-67
2023/03/21 06:10:32;;;;;;;7.57;4.70;;;8.80;99.90;;;;;;5010291;28;20209;-66
2023/03/21 06:12:58;;;;;;;4.50;3.80;;;8.90;99.90;;;;;;5012475;28;20597;-67
2023/03/21 06:15:25;;;;;;;4.67;4.20;;;9.00;99.90;;;;;;5012881;28;20686;-68
2023/03/21 06:17:50;;;;;;;4.43;4.03;;;9.00;99.90;;;;;;5009935;28;20552;-67
2023/03/21 06:20:16;;;;;;;5.07;4.60;;;9.10;99.90;;;;;;5011146;28;20469;-68
2023/03/21 06:22:42;;;;;;;4.30;3.90;;;9.20;99.90;;;;;;5012149;28;20627;-67
2023/03/21 06:25:08;;;;;;;5.77;5.00;;;9.20;99.90;;;;;;5012147;28;20175;-68
2023/03/21 06:27:34;;;;;;;13.93;4.70;;;9.20;99.90;;;;;;5011392;28;20236;-67
2023/03/21 06:29:59;;;;;;;8.13;4.53;;;9.30;99.90;;;;;;5008014;28;20536;-68
2023/03/21 06:32:25;;;;;;;4.57;4.17;;;9.30;99.90;;;;;;5011996;28;20937;-68
2023/03/21 06:34:52;;;;;;;4.00;3.60;;;9.30;99.90;;;;;;5018152;28;20213;-67
2023/03/21 06:37:18;;;;;;;7.57;5.07;;;9.40;99.90;;;;;;5011219;28;20473;-67
2023/03/21 06:39:45;;;;;;;6.70;4.33;;;9.50;99.90;;;;;;5009467;28;20437;-67
2023/03/21 06:42:11;;;;;;;5.30;4.80;;;9.50;99.90;;;;;;5010433;28;20553;-68
2023/03/21 06:44:37;;;;;;;5.20;4.70;;;9.50;99.90;;;;;;5011849;28;20856;-68
2023/03/21 06:47:02;;;;;;;4.77;4.40;;;9.60;99.90;;;;;;5007342;28;20533;-68
2023/03/21 06:49:28;;;;;;;5.53;4.90;;;9.70;99.90;;;;;;5010216;28;20632;-67
2023/03/21 06:51:54;;;;;;;5.00;4.47;;;10.00;99.90;;;;;;5009596;28;20599;-68
2023/03/21 06:54:19;;;;;;;7.30;4.30;;;10.40;99.90;;;;;;5008277;28;20198;-68
2023/03/21 06:56:48;;;;;;;5.33;4.83;;;10.70;99.90;;;;;;5009850;28;20214;-68
2023/03/21 06:59:14;;;;;;;8.27;5.80;;;11.00;99.90;;;;;;5008396;28;20190;-68
2023/03/21 07:01:41;;;;;;;7.13;5.43;;;11.30;99.90;;;;;;5010529;28;20472;-68
2023/03/21 07:04:07;;;;;;;13.60;5.80;;;11.60;99.90;;;;;;5011504;28;20441;-68
2023/03/21 07:06:33;;;;;;;7.80;5.40;;;11.90;99.90;;;;;;5008856;28;20449;-69
2023/03/21 07:08:59;;;;;;;6.80;5.67;;;12.20;99.90;;;;;;5009422;28;20863;-68
2023/03/21 07:11:25;;;;;;;11.10;6.23;;;12.60;99.90;;;;;;5011159;28;20972;-68
2023/03/21 07:13:51;;;;;;;4.80;4.40;;;12.80;99.90;;;;;;5010270;28;20187;-68
2023/03/21 07:16:18;;;;;;;5.57;4.87;;;13.00;99.90;;;;;;5006923;28;20473;-68
2023/03/21 07:18:44;;;;;;;5.13;4.63;;;13.20;99.90;;;;;;5009177;28;20438;-68
2023/03/21 07:21:10;;;;;;;4.93;4.53;;;13.40;99.90;;;;;;5005473;28;20811;-68
2023/03/21 07:23:37;;;;;;;6.80;4.13;;;13.60;99.90;;;;;;5006472;28;20198;-67
2023/03/21 07:26:03;;;;;;;4.97;4.10;;;13.80;99.90;;;;;;5009295;28;20460;-68
2023/03/21 07:28:30;;;;;;;4.70;3.57;;;13.80;99.90;;;;;;5009275;28;20814;-70
2023/03/21 07:30:59;;;;;;;4.23;3.93;;;13.80;99.90;;;;;;5002162;28;20954;-69
2023/03/21 07:33:25;;;;;;;5.83;3.70;;;13.50;99.90;;;;;;5011940;28;20823;-69
2023/03/21 07:35:51;;;;;;;4.37;3.10;;;13.40;99.90;;;;;;5009902;28;20595;-70
2023/03/21 07:38:18;;;;;;;4.23;3.83;;;13.20;99.90;;;;;;5010517;28;20256;-70
2023/03/21 07:40:45;;;;;;;3.27;3.03;;;13.30;99.90;;;;;;5015184;28;20452;-70
2023/03/21 07:43:11;;;;;;;4.73;3.20;;;13.40;99.90;;;;;;5014147;28;20440;-70
2023/03/21 07:45:36;;;;;;;5.50;3.40;;;13.60;99.90;;;;;;5013696;28;20429;-70
2023/03/21 07:48:02;;;;;;;3.73;3.00;;;13.60;99.90;;;;;;5013431;28;20197;-71
2023/03/21 07:50:27;;;;;;;3.50;3.20;;;13.90;99.90;;;;;;5008264;28;20786;-69
2023/03/21 07:52:53;;;;;;;3.23;2.90;;;14.10;99.90;;;;;;5013557;28;20164;-69
2023/03/21 07:55:19;;;;;;;5.53;3.03;;;14.10;99.90;;;;;;5014454;28;20179;-70
2023/03/21 07:57:45;;;;;;;3.03;2.80;;;14.20;99.90;;;;;;5014292;28;20209;-69
2023/03/21 08:00:12;;;;;;;6.33;3.10;;;14.20;99.90;;;;;;5009159;28;20195;-70
2023/03/21 08:02:38;;;;;;;3.43;3.10;;;14.20;99.90;;;;;;5012910;28;20444;-70
2023/03/21 08:05:03;;;;;;;2.60;2.40;;;14.20;99.90;;;;;;5011664;28;20441;-70
2023/03/21 08:07:29;;;;;;;3.90;2.40;;;14.20;99.90;;;;;;5014026;28;20736;-67
2023/03/21 08:09:55;;;;;;;3.07;2.77;;;14.40;99.90;;;;;;5013801;28;20644;-70
2023/03/21 08:12:20;;;;;;;3.20;2.90;;;14.70;99.90;;;;;;5015775;28;20201;-72
2023/03/21 08:14:46;;;;;;;2.90;2.60;;;14.90;99.90;;;;;;5014301;28;20533;-70
2023/03/21 08:17:12;;;;;;;3.13;2.77;;;15.10;99.90;;;;;;5020168;28;20293;-69
2023/03/21 08:19:37;;;;;;;3.73;3.23;;;15.40;99.90;;;;;;5012011;28;20187;-71
2023/03/21 08:22:05;;;;;;;3.27;2.97;;;15.30;99.90;;;;;;5012253;28;20228;-70
2023/03/21 08:24:32;;;;;;;3.83;3.37;;;15.30;99.90;;;;;;5013400;28;20174;-69
2023/03/21 08:26:59;;;;;;;4.00;3.00;;;15.10;99.90;;;;;;5013244;28;20468;-69
2023/03/21 08:29:24;;;;;;;3.53;3.07;;;15.20;99.90;;;;;;5013284;28;20441;-69
2023/03/21 08:31:50;;;;;;;3.30;3.00;;;15.40;99.90;;;;;;5012824;28;20465;-69
2023/03/21 08:34:16;;;;;;;11.20;4.07;;;15.20;99.90;;;;;;5013357;28;20254;-69
2023/03/21 08:36:42;;;;;;;3.03;2.70;;;15.40;99.90;;;;;;5012472;28;20594;-70
2023/03/21 08:39:08;;;;;;;2.97;2.70;;;15.80;99.90;;;;;;5012554;28;20426;-69
2023/03/21 08:41:36;;;;;;;3.00;2.60;;;16.30;99.70;;;;;;5014277;28;20198;-69
2023/03/21 08:44:03;;;;;;;4.47;2.67;;;16.40;95.40;;;;;;5013623;28;20946;-70
2023/03/21 08:46:29;;;;;;;3.57;3.23;;;16.50;92.70;;;;;;5013421;28;20813;-69
2023/03/21 08:48:55;;;;;;;2.90;2.70;;;16.60;93.90;;;;;;5011514;28;20825;-69
2023/03/21 08:51:20;;;;;;;2.93;2.70;;;16.80;94.50;;;;;;5011358;28;20480;-70
2023/03/21 08:53:46;;;;;;;3.83;3.13;;;17.30;94.00;;;;;;5013520;28;20179;-70
2023/03/21 08:56:11;;;;;;;2.53;2.33;;;17.50;92.20;;;;;;5011446;28;20206;-70
2023/03/21 08:58:37;;;;;;;2.53;2.33;;;18.00;83.60;;;;;;5012065;28;20186;-70
2023/03/21 09:01:05;;;;;;;3.00;2.20;;;18.40;80.80;;;;;;5013058;28;20198;-69
2023/03/21 09:03:31;;;;;;;2.63;2.43;;;18.10;77.40;;;;;;5013358;28;20434;-69
2023/03/21 09:05:57;;;;;;;3.03;2.73;;;17.70;77.80;;;;;;5012553;28;20442;-70
2023/03/21 09:08:23;;;;;;;2.90;2.60;;;18.20;77.90;;;;;;5009959;28;20535;-71
2023/03/21 09:10:53;;;;;;;2.23;2.13;;;19.00;75.80;;;;;;5011032;28;20484;-70
2023/03/21 09:13:19;;;;;;;3.43;3.17;;;20.00;73.80;;;;;;5012918;28;20179;-69
2023/03/21 09:15:45;;;;;;;2.97;2.77;;;20.30;68.10;;;;;;5011981;28;20465;-70
2023/03/21 09:18:16;;;;;;;2.50;2.30;;;20.20;69.50;;;;;;5012188;28;20950;-70
2023/03/21 09:20:44;;;;;;;2.70;2.50;;;21.00;66.50;;;;;;5012259;28;20680;-70
2023/03/21 09:23:10;;;;;;;2.83;1.83;;;20.70;60.50;;;;;;5012768;28;20437;-70
2023/03/21 09:25:37;;;;;;;4.90;2.60;;;20.60;62.60;;;;;;5009798;28;20848;-69
2023/03/21 09:28:04;;;;;;;2.90;2.10;;;22.00;59.70;;;;;;5011285;28;20449;-69
2023/03/21 09:30:31;;;;;;;6.27;5.67;;;22.20;57.30;;;;;;5010876;28;20504;-70
2023/03/21 09:33:02;;;;;;;2.37;2.17;;;21.50;58.40;;;;;;5011400;28;20508;-69
2023/03/21 09:35:28;;;;;;;4.13;3.73;;;20.70;58.70;;;;;;5009555;28;20449;-70
2023/03/21 09:37:58;;;;;;;3.10;2.80;;;20.70;59.80;;;;;;5007018;28;20801;-70
2023/03/21 09:41:00;;;;;;;2.13;2.03;;;20.80;59.70;;;;;;5012135;28;20803;-70
2023/03/21 09:43:41;;;;;;;2.43;2.23;;;21.40;58.70;;;;;;5008536;28;20960;-69
2023/03/21 09:46:15;;;;;;;3.03;2.40;;;22.30;57.20;;;;;;5013066;28;20480;-69
2023/03/21 09:49:00;;;;;;;2.63;2.43;;;21.60;58.70;;;;;;5010706;28;20476;-69
2023/03/21 09:51:38;;;;;;;2.70;2.50;;;22.20;57.90;;;;;;5003631;28;20834;-71
2023/03/21 09:54:26;;;;;;;2.50;2.30;;;22.40;57.20;;;;;;5010665;28;20456;-71
2023/03/21 09:56:55;;;;;;;2.87;2.17;;;23.40;55.50;;;;;;5012885;28;20561;-71
2023/03/21 09:59:27;;;;;;;2.30;1.63;;;23.40;54.80;;;;;;5011387;28;20434;-71
2023/03/21 10:01:54;;;;;;;4.07;2.27;;;23.00;55.00;;;;;;5011913;28;20962;-71
2023/03/21 10:04:21;;;;;;;2.60;2.40;;;24.00;53.50;;;;;;5011729;28;20471;-71
2023/03/21 10:06:56;;;;;;;2.13;2.03;;;23.70;53.40;;;;;;5012809;28;20425;-70
2023/03/21 10:09:23;;;;;;;3.20;1.70;;;24.60;53.80;;;;;;5012086;28;20409;-72
2023/03/21 10:11:58;;;;;;;2.20;2.00;;;24.70;52.50;;;;;;5011414;28;20457;-72
2023/03/21 10:14:27;;;;;;;2.67;2.47;;;25.80;54.00;;;;;;5012625;28;20812;-72
2023/03/21 10:17:20;;;;;;;4.43;2.50;;;26.60;53.80;;;;;;5012665;28;20421;-72
2023/03/21 10:19:48;;;;;;;4.00;2.10;;;25.70;53.40;;;;;;5011726;28;20505;-72
2023/03/21 10:22:14;;;;;;;1.97;1.87;;;25.80;54.10;;;;;;5012670;28;20521;-71
2023/03/21 10:24:40;;;;;;;2.63;2.00;;;26.60;53.20;;;;;;5012584;28;20545;-72
2023/03/21 10:27:06;;;;;;;2.40;2.20;;;27.30;51.30;;;;;;5011631;28;20608;-72
2023/03/21 10:29:42;;;;;;;1.97;1.73;;;27.90;49.60;;;;;;5011584;28;20674;-72
2023/03/21 10:32:11;;;;;;;3.13;1.80;;;27.00;46.90;;;;;;5012264;28;20266;-71
2023/03/21 10:34:49;;;;;;;2.10;2.00;;;27.30;47.70;;;;;;5011437;28;20435;-71
2023/03/21 10:37:15;;;;;;;3.23;2.93;;;27.10;46.80;;;;;;5004718;28;20444;-72
2023/03/21 10:39:52;;;;;;;1.90;1.63;;;27.00;46.00;;;;;;5011072;28;20433;-70
2023/03/21 10:42:24;;;;;;;1.60;1.50;;;25.60;46.20;;;;;;5012531;28;20704;-70
2023/03/21 10:44:53;;;;;;;2.03;1.70;;;24.90;47.10;;;;;;5009735;28;20475;-71
2023/03/21 10:47:21;;;;;;;2.30;2.10;;;24.90;46.30;;;;;;5009475;28;20501;-70
2023/03/21 10:49:47;;;;;;;1.60;1.50;;;23.90;48.50;;;;;;5006093;28;20462;-69
2023/03/21 10:52:20;;;;;;;2.10;2.00;;;23.80;49.60;;;;;;5008096;28;20481;-72
2023/03/21 10:54:47;;;;;;;2.53;2.33;;;23.50;49.50;;;;;;5005470;28;20940;-71
2023/03/21 10:57:17;;;;;;;1.90;1.80;;;23.80;50.00;;;;;;5004596;28;20453;-69
2023/03/21 10:59:52;;;;;;;1.83;1.73;;;23.30;49.10;;;;;;5008195;28;20438;-70
2023/03/21 11:02:33;;;;;;;2.03;1.90;;;22.00;50.60;;;;;;5004348;28;20448;-72
2023/03/21 11:05:21;;;;;;;1.80;1.70;;;21.00;52.60;;;;;;5008643;28;20445;-73
2023/03/21 11:07:55;;;;;;;1.63;1.53;;;20.80;52.90;;;;;;5007692;28;20469;-72
2023/03/21 11:10:30;;;;;;;1.63;1.53;;;20.60;52.60;;;;;;5010236;28;20468;-73
2023/03/21 11:13:00;;;;;;;8.37;5.90;;;20.30;52.20;;;;;;5013131;28;20440;-75
2023/03/21 11:15:30;;;;;;;118.07;64.20;;;20.00;53.90;;;;;;5014794;28;20437;-75
2023/03/21 11:17:57;;;;;;;29.03;15.03;;;19.80;54.10;;;;;;5011373;28;20441;-73
2023/03/21 11:20:24;;;;;;;7.83;5.43;;;19.90;54.70;;;;;;5012802;28;20461;-72
2023/03/21 11:22:54;;;;;;;3.90;3.17;;;20.00;53.20;;;;;;5014431;28;20448;-74
2023/03/21 11:25:38;;;;;;;3.67;2.93;;;20.20;52.70;;;;;;5013325;28;20441;-72
2023/03/21 11:28:16;;;;;;;5.77;3.90;;;19.70;52.20;;;;;;5013788;28;20534;-69
2023/03/21 11:30:56;;;;;;;6.97;5.67;;;19.20;51.90;;;;;;5010684;28;20465;-67
2023/03/21 11:33:26;;;;;;;3.57;3.27;;;19.10;54.10;;;;;;5007110;28;20445;-72
2023/03/21 11:36:04;;;;;;;2.60;2.40;;;19.20;54.00;;;;;;5011828;28;20453;-67
2023/03/21 11:38:37;;;;;;;3.23;2.10;;;19.00;53.60;;;;;;5007047;28;20549;-70
2023/03/21 11:41:04;;;;;;;2.00;1.90;;;18.60;55.90;;;;;;5011259;28;20462;-68
2023/03/21 11:43:36;;;;;;;3.10;1.87;;;18.50;56.70;;;;;;5010910;28;20848;-74
2023/03/21 11:46:05;;;;;;;2.50;1.97;;;18.60;57.40;;;;;;5003728;28;20478;-70
2023/03/21 11:48:44;;;;;;;2.90;1.70;;;18.80;56.50;;;;;;5020374;28;20486;-68
2023/03/21 11:51:45;;;;;;;4.70;1.77;;;19.00;56.90;;;;;;5013679;28;20475;-70
2023/03/21 11:54:31;;;;;;;3.33;2.13;;;18.90;54.90;;;;;;5009684;28;20445;-70
2023/03/21 11:57:26;;;;;;;2.70;2.50;;;18.90;57.40;;;;;;5012834;28;20531;-73
2023/03/21 12:00:16;;;;;;;2.30;2.10;;;19.10;57.20;;;;;;5002333;28;20515;-70
2023/03/21 12:03:13;;;;;;;2.03;1.93;;;19.20;56.50;;;;;;5008529;28;20437;-69
2023/03/21 12:06:12;;;;;;;2.60;2.30;;;19.30;55.80;;;;;;5010994;28;20488;-71
2023/03/21 12:09:09;;;;;;;1.67;1.57;;;19.40;54.50;;;;;;5007911;28;20438;-71
2023/03/21 12:11:48;;;;;;;8.47;2.13;;;19.40;53.70;;;;;;5007601;28;20462;-71
2023/03/21 12:14:19;;;;;;;2.53;2.20;;;19.20;54.20;;;;;;5007529;28;20532;-71
2023/03/21 12:16:47;;;;;;;2.90;2.50;;;19.10;57.50;;;;;;5007409;28;20457;-71
2023/03/21 12:19:48;;;;;;;2.60;2.33;;;19.20;56.70;;;;;;5007822;28;20509;-71
2023/03/21 12:22:48;;;;;;;3.33;2.17;;;19.00;57.00;;;;;;4996281;28;20970;-71
2023/03/21 12:25:26;;;;;;;3.33;2.27;;;19.30;56.90;;;;;;5010439;28;20449;-71
2023/03/21 12:27:55;;;;;;;2.57;2.37;;;19.30;56.10;;;;;;5012474;28;20472;-71
2023/03/21 12:30:30;;;;;;;2.37;2.17;;;19.20;57.10;;;;;;5011743;28;20458;-70
2023/03/21 12:33:13;;;;;;;4.50;3.47;;;19.30;57.40;;;;;;5013771;28;20473;-71
2023/03/21 12:36:26;;;;;;;2.37;2.17;;;19.80;57.30;;;;;;5013311;28;20469;-69
2023/03/21 12:39:03;;;;;;;2.73;2.53;;;19.60;55.60;;;;;;5005219;28;20529;-71
2023/03/21 12:41:42;;;;;;;2.60;2.40;;;19.90;56.10;;;;;;5008613;28;20477;-72
2023/03/21 12:44:20;;;;;;;2.50;2.03;;;20.10;55.00;;;;;;5010510;28;20536;-71
2023/03/21 12:46:59;;;;;;;2.50;2.30;;;20.50;55.20;;;;;;5012447;28;20978;-70
2023/03/21 12:49:46;;;;;;;2.30;1.90;;;20.00;54.10;;;;;;5010085;28;20437;-70
2023/03/21 12:52:20;;;;;;;4.67;2.60;;;20.00;53.40;;;;;;5008401;28;20473;-70
2023/03/21 12:54:50;;;;;;;2.50;2.40;;;20.40;53.70;;;;;;5008278;28;20437;-70
2023/03/21 12:57:30;;;;;;;2.20;2.10;;;20.70;52.90;;;;;;5010940;28;20826;-71
2023/03/21 13:00:25;;;;;;;2.47;2.20;;;21.60;50.20;;;;;;5010958;28;20441;-70
2023/03/21 13:03:02;;;;;;;1.77;1.67;;;21.50;47.90;;;;;;4995187;28;20973;-70
2023/03/21 13:05:34;;;;;;;1.93;1.60;;;22.00;48.40;;;;;;5011102;28;20794;-71